createdAt,value
2023-11-16T00:00:13.476Z,1.98
2023-11-16T00:02:44.557Z,2.60
2023-11-16T00:05:14.626Z,2.85
2023-11-16T00:07:49.050Z,1.70
2023-11-16T00:10:17.408Z,1.98
2023-11-16T00:12:44.377Z,2.15
2023-11-16T00:15:11.871Z,1.67
2023-11-16T00:17:38.798Z,2.15
2023-11-16T00:20:08.006Z,1.77
2023-11-16T00:22:35.198Z,1.85
2023-11-16T00:25:07.111Z,1.98
2023-11-16T00:27:34.655Z,1.83
2023-11-16T00:30:04.928Z,1.95
2023-11-16T00:32:33.228Z,2.45
2023-11-16T00:35:01.300Z,2.55
2023-11-16T00:37:28.270Z,2.30
2023-11-16T00:39:59.876Z,1.65
2023-11-16T00:42:26.916Z,2.17
2023-11-16T00:44:53.977Z,2.30
2023-11-16T00:47:20.929Z,1.50
2023-11-16T00:49:48.151Z,2.55
2023-11-16T00:52:15.204Z,1.88
2023-11-16T00:54:44.708Z,2.10
2023-11-16T00:57:14.713Z,2.00
2023-11-16T00:59:42.288Z,2.08
2023-11-16T01:02:10.663Z,2.30
2023-11-16T01:04:39.500Z,1.50
2023-11-16T01:07:09.497Z,2.42
2023-11-16T01:09:39.432Z,1.95
2023-11-16T01:12:15.465Z,2.20
2023-11-16T01:14:43.815Z,1.80
2023-11-16T01:17:19.791Z,2.22
2023-11-16T01:19:49.298Z,1.50
2023-11-16T01:22:18.084Z,1.85
2023-11-16T01:24:46.108Z,2.90
2023-11-16T01:27:27.120Z,1.83
2023-11-16T01:29:54.252Z,1.77
2023-11-16T01:32:22.064Z,1.58
2023-11-16T01:34:49.086Z,1.50
2023-11-16T01:37:17.109Z,1.45
2023-11-16T01:39:44.533Z,1.50
2023-11-16T01:42:11.634Z,1.80
2023-11-16T01:44:40.218Z,2.25
2023-11-16T01:47:09.524Z,1.90
2023-11-16T01:49:36.709Z,1.40
2023-11-16T01:52:04.292Z,2.35
2023-11-16T01:54:33.168Z,1.50
2023-11-16T01:57:00.011Z,1.48
2023-11-16T01:59:27.489Z,1.50
2023-11-16T02:01:54.468Z,1.30
2023-11-16T02:04:23.512Z,1.90
2023-11-16T02:06:50.704Z,1.60
2023-11-16T02:09:17.866Z,1.35
2023-11-16T02:11:44.787Z,1.80
2023-11-16T02:14:12.747Z,1.52
2023-11-16T02:16:40.321Z,1.73
2023-11-16T02:19:32.804Z,1.55
2023-11-16T02:22:00.434Z,1.52
2023-11-16T02:24:28.896Z,1.33
2023-11-16T02:26:55.983Z,1.45
2023-11-16T02:29:22.961Z,1.65
2023-11-16T02:31:49.909Z,1.33
2023-11-16T02:34:16.882Z,1.25
2023-11-16T02:36:43.818Z,1.77
2023-11-16T02:39:14.658Z,1.33
2023-11-16T02:41:42.385Z,1.05
2023-11-16T02:44:10.276Z,1.17
2023-11-16T02:46:37.390Z,1.55
2023-11-16T02:49:04.336Z,2.40
2023-11-16T02:51:32.532Z,1.13
2023-11-16T02:54:03.406Z,1.50
2023-11-16T02:56:30.320Z,1.50
2023-11-16T02:58:57.170Z,1.63
2023-11-16T03:01:24.748Z,1.60
2023-11-16T03:03:52.100Z,1.20
2023-11-16T03:06:19.823Z,1.30
2023-11-16T03:08:47.213Z,1.23
2023-11-16T03:11:15.002Z,1.30
2023-11-16T03:13:42.559Z,1.58
2023-11-16T03:16:10.385Z,1.35
2023-11-16T03:18:37.329Z,1.40
2023-11-16T03:21:04.713Z,2.03
2023-11-16T03:23:31.633Z,1.55
2023-11-16T03:25:58.764Z,1.38
2023-11-16T03:28:25.619Z,1.52
2023-11-16T03:30:52.709Z,1.45
2023-11-16T03:33:19.648Z,1.10
2023-11-16T03:35:50.316Z,1.17
2023-11-16T03:38:19.412Z,1.45
2023-11-16T03:40:46.575Z,1.50
2023-11-16T03:43:15.266Z,1.33
2023-11-16T03:45:42.397Z,1.30
2023-11-16T03:48:11.549Z,1.40
2023-11-16T03:50:43.748Z,1.50
2023-11-16T03:53:11.824Z,1.10
2023-11-16T03:55:38.682Z,1.33
2023-11-16T03:58:05.602Z,1.83
2023-11-16T04:00:33.465Z,1.50
2023-11-16T04:03:00.751Z,1.30
2023-11-16T04:05:28.032Z,2.20
2023-11-16T04:07:56.463Z,1.33
2023-11-16T04:10:23.436Z,0.90
2023-11-16T04:12:50.586Z,1.63
2023-11-16T04:15:17.425Z,1.00
2023-11-16T04:17:46.273Z,1.15
2023-11-16T04:20:14.474Z,1.27
2023-11-16T04:22:41.617Z,2.47
2023-11-16T04:25:18.349Z,1.08
2023-11-16T04:27:46.654Z,1.10
2023-11-16T04:30:14.850Z,1.05
2023-11-16T04:32:48.625Z,1.63
2023-11-16T04:35:16.617Z,1.40
2023-11-16T04:37:43.758Z,1.10
2023-11-16T04:40:11.632Z,1.30
2023-11-16T04:42:40.494Z,0.75
2023-11-16T04:45:10.480Z,1.45
2023-11-16T04:47:40.038Z,1.30
2023-11-16T04:50:07.862Z,1.33
2023-11-16T04:52:35.337Z,1.25
2023-11-16T04:55:02.529Z,1.30
2023-11-16T04:57:29.441Z,1.35
2023-11-16T04:59:57.003Z,1.48
2023-11-16T05:02:23.819Z,1.20
2023-11-16T05:04:52.127Z,1.13
2023-11-16T05:07:19.045Z,1.40
2023-11-16T05:09:45.931Z,1.85
2023-11-16T05:12:14.108Z,1.20
2023-11-16T05:14:40.954Z,1.17
2023-11-16T05:17:07.851Z,2.58
2023-11-16T05:19:34.794Z,1.65
2023-11-16T05:22:03.063Z,1.30
2023-11-16T05:24:30.801Z,2.33
2023-11-16T05:27:02.954Z,1.40
2023-11-16T05:29:31.118Z,1.58
2023-11-16T05:31:58.557Z,1.50
2023-11-16T05:34:28.828Z,2.17
2023-11-16T05:36:56.462Z,1.63
2023-11-16T05:39:23.513Z,2.30
2023-11-16T05:41:51.977Z,1.85
2023-11-16T05:44:21.219Z,1.70
2023-11-16T05:46:48.662Z,1.67
2023-11-16T05:49:18.305Z,2.22
2023-11-16T05:51:45.320Z,1.88
2023-11-16T05:54:15.440Z,1.60
2023-11-16T05:56:46.092Z,1.95
2023-11-16T05:59:15.450Z,2.25
2023-11-16T06:01:46.625Z,1.70
2023-11-16T06:04:14.088Z,2.30
2023-11-16T06:06:40.991Z,3.03
2023-11-16T06:09:08.344Z,4.22
2023-11-16T06:11:35.272Z,2.28
2023-11-16T06:14:06.115Z,1.83
2023-11-16T06:16:35.668Z,1.58
2023-11-16T06:19:02.702Z,2.03
2023-11-16T06:21:30.747Z,1.13
2023-11-16T06:23:57.769Z,2.60
2023-11-16T06:26:24.740Z,1.77
2023-11-16T06:28:51.808Z,0.95
2023-11-16T06:31:20.222Z,1.17
2023-11-16T06:33:47.185Z,1.20
2023-11-16T06:36:14.097Z,1.02
2023-11-16T06:38:41.445Z,1.20
2023-11-16T06:41:08.660Z,0.82
2023-11-16T06:43:35.490Z,1.88
2023-11-16T06:46:03.369Z,0.95
2023-11-16T06:48:32.048Z,1.13
2023-11-16T06:51:00.282Z,1.23
2023-11-16T06:53:27.517Z,1.27
2023-11-16T06:55:54.425Z,1.58
2023-11-16T06:58:23.826Z,1.10
2023-11-16T07:00:52.327Z,1.25
2023-11-16T07:03:19.459Z,1.30
2023-11-16T07:05:46.393Z,1.45
2023-11-16T07:08:13.290Z,2.00
2023-11-16T07:10:40.167Z,1.98
2023-11-16T07:13:07.473Z,2.17
2023-11-16T07:15:34.520Z,1.10
2023-11-16T07:18:05.587Z,1.20
2023-11-16T07:20:32.521Z,1.30
2023-11-16T07:22:59.337Z,1.27
2023-11-16T07:25:28.657Z,1.50
2023-11-16T07:27:55.672Z,1.80
2023-11-16T07:30:22.616Z,1.27
2023-11-16T07:32:49.517Z,1.63
2023-11-16T07:35:16.572Z,2.13
2023-11-16T07:37:48.169Z,1.05
2023-11-16T07:40:16.705Z,1.42
2023-11-16T07:42:44.087Z,2.25
2023-11-16T07:45:11.331Z,1.45
2023-11-16T07:47:42.626Z,1.52
2023-11-16T07:50:11.912Z,1.45
2023-11-16T07:52:43.992Z,2.53
2023-11-16T07:55:17.942Z,2.25
2023-11-16T07:57:49.533Z,2.30
2023-11-16T08:00:28.162Z,2.08
2023-11-16T08:03:13.987Z,1.95
2023-11-16T08:05:42.876Z,1.92
2023-11-16T08:08:13.269Z,1.50
2023-11-16T08:10:46.421Z,1.70
2023-11-16T08:13:13.638Z,1.77
2023-11-16T08:15:44.296Z,1.50
2023-11-16T08:18:13.354Z,1.50
2023-11-16T08:20:40.730Z,1.40
2023-11-16T08:23:07.914Z,1.50
2023-11-16T08:25:35.265Z,2.15
2023-11-16T08:28:02.778Z,1.65
2023-11-16T08:30:30.492Z,1.98
2023-11-16T08:32:57.416Z,1.40
2023-11-16T08:35:24.776Z,2.20
2023-11-16T08:37:55.171Z,3.42
2023-11-16T08:40:25.375Z,3.60
2023-11-16T08:42:53.071Z,1.30
2023-11-16T08:45:25.903Z,1.83
2023-11-16T08:47:53.840Z,2.17
2023-11-16T08:50:22.011Z,1.83
2023-11-16T08:52:48.997Z,2.38
2023-11-16T08:55:22.526Z,2.33
2023-11-16T08:57:51.587Z,2.35
2023-11-16T09:00:38.999Z,1.20
2023-11-16T09:03:09.048Z,1.77
2023-11-16T09:05:40.598Z,2.00
2023-11-16T09:08:11.180Z,1.60
2023-11-16T09:10:38.494Z,2.25
2023-11-16T09:13:08.928Z,2.08
2023-11-16T09:15:35.919Z,2.10
2023-11-16T09:18:04.166Z,1.80
2023-11-16T09:20:31.196Z,1.38
2023-11-16T09:23:01.654Z,1.55
2023-11-16T09:25:31.254Z,2.00
2023-11-16T09:27:59.769Z,2.58
2023-11-16T09:30:30.013Z,1.85
2023-11-16T09:32:57.272Z,1.25
2023-11-16T09:35:24.447Z,1.00
2023-11-16T09:37:53.313Z,1.13
2023-11-16T09:40:25.380Z,0.73
2023-11-16T09:42:58.746Z,0.50
2023-11-16T09:45:29.182Z,0.65
2023-11-16T09:48:05.450Z,0.75
2023-11-16T09:50:32.425Z,0.65
2023-11-16T09:52:59.936Z,0.70
2023-11-16T09:55:33.308Z,1.60
2023-11-16T09:58:09.579Z,0.88
2023-11-16T10:00:37.452Z,1.10
2023-11-16T10:03:07.416Z,1.30
2023-11-16T10:05:38.472Z,1.58
2023-11-16T10:08:10.273Z,0.95
2023-11-16T10:10:37.712Z,0.70
2023-11-16T10:13:05.344Z,1.17
2023-11-16T10:15:33.262Z,1.00
2023-11-16T10:18:02.479Z,1.85
2023-11-16T10:20:30.717Z,2.13
2023-11-16T10:22:58.925Z,1.73
2023-11-16T10:25:25.904Z,1.83
2023-11-16T10:27:52.970Z,2.25
2023-11-16T10:30:19.981Z,2.80
2023-11-16T10:32:50.315Z,2.95
2023-11-16T10:35:19.049Z,3.38
2023-11-16T10:37:46.081Z,2.65
2023-11-16T10:40:13.285Z,2.95
2023-11-16T10:42:43.987Z,3.42
2023-11-16T10:45:13.779Z,3.28
2023-11-16T10:47:45.091Z,3.22
2023-11-16T10:50:16.319Z,3.65
2023-11-16T10:52:48.404Z,4.68
2023-11-16T10:55:25.437Z,4.03
2023-11-16T10:57:58.103Z,4.50
2023-11-16T11:00:27.658Z,4.40
2023-11-16T11:02:57.107Z,4.80
2023-11-16T11:05:25.587Z,4.28
2023-11-16T11:07:58.166Z,4.78
2023-11-16T11:10:27.184Z,4.07
2023-11-16T11:12:55.303Z,3.92
2023-11-16T11:15:32.531Z,4.57
2023-11-16T11:18:02.300Z,4.60
2023-11-16T11:20:45.255Z,3.80
2023-11-16T11:23:19.720Z,4.22
2023-11-16T11:25:46.950Z,4.32
2023-11-16T11:28:17.445Z,5.40
2023-11-16T11:31:01.070Z,6.07
2023-11-16T11:33:31.232Z,7.15
2023-11-16T11:35:58.460Z,9.13
2023-11-16T11:38:29.018Z,11.73
2023-11-16T11:41:00.156Z,10.93
2023-11-16T11:43:27.642Z,14.70
2023-11-16T11:45:58.181Z,17.27
2023-11-16T11:48:26.040Z,17.08
2023-11-16T11:50:56.653Z,15.00
2023-11-16T11:53:30.901Z,14.65
2023-11-16T11:55:58.354Z,13.18
2023-11-16T11:58:26.589Z,9.90
2023-11-16T12:00:57.924Z,9.45
2023-11-16T12:03:24.956Z,8.43
2023-11-16T12:05:59.788Z,6.57
2023-11-16T12:08:42.598Z,6.65
2023-11-16T12:11:13.005Z,5.88
2023-11-16T12:13:40.162Z,5.97
2023-11-16T12:16:07.709Z,4.95
2023-11-16T12:18:39.858Z,4.90
2023-11-16T12:21:07.686Z,4.47
2023-11-16T12:23:34.674Z,4.28
2023-11-16T12:26:03.942Z,4.10
2023-11-16T12:28:34.528Z,5.00
2023-11-16T12:31:02.363Z,4.97
2023-11-16T12:33:30.261Z,4.57
2023-11-16T12:35:57.224Z,4.55
2023-11-16T12:38:24.045Z,4.55
2023-11-16T12:40:51.419Z,4.60
2023-11-16T12:43:21.613Z,5.30
2023-11-16T12:45:49.049Z,4.45
2023-11-16T12:48:17.728Z,4.90
2023-11-16T12:50:45.463Z,4.18
2023-11-16T12:53:14.084Z,4.50
2023-11-16T12:55:41.130Z,4.40
2023-11-16T12:58:08.131Z,4.93
2023-11-16T13:00:35.073Z,4.28
2023-11-16T13:03:02.802Z,4.57
2023-11-16T13:05:32.117Z,5.22
2023-11-16T13:07:59.436Z,4.60
2023-11-16T13:10:27.865Z,4.88
2023-11-16T13:12:55.401Z,4.45
2023-11-16T13:15:22.598Z,4.03
2023-11-16T13:17:49.675Z,4.57
2023-11-16T13:20:16.560Z,5.30
2023-11-16T13:22:43.433Z,4.43
2023-11-16T13:25:10.874Z,5.80
2023-11-16T13:27:48.635Z,5.03
2023-11-16T13:30:16.117Z,5.97
2023-11-16T13:32:43.842Z,5.28
2023-11-16T13:35:14.598Z,5.07
2023-11-16T13:37:43.395Z,4.78
2023-11-16T13:40:13.251Z,5.22
2023-11-16T13:42:41.808Z,4.97
2023-11-16T13:45:15.729Z,7.25
2023-11-16T13:47:43.984Z,5.68
2023-11-16T13:50:12.434Z,5.53
2023-11-16T13:52:40.366Z,5.15
2023-11-16T13:55:08.914Z,6.22
2023-11-16T13:57:36.746Z,6.00
2023-11-16T14:00:04.544Z,6.07
2023-11-16T14:02:31.427Z,5.45
2023-11-16T14:04:58.357Z,5.65
2023-11-16T14:07:27.882Z,5.28
2023-11-16T14:09:58.108Z,6.75
2023-11-16T14:12:26.657Z,4.85
2023-11-16T14:14:56.850Z,4.38
2023-11-16T14:17:23.855Z,5.28
2023-11-16T14:19:50.790Z,4.20
2023-11-16T14:22:19.445Z,4.05
2023-11-16T14:24:47.928Z,5.43
2023-11-16T14:27:15.160Z,4.05
2023-11-16T14:29:42.348Z,4.47
2023-11-16T14:32:09.623Z,4.25
2023-11-16T14:34:36.448Z,4.32
2023-11-16T14:37:05.861Z,4.28
2023-11-16T14:39:35.498Z,3.92
2023-11-16T14:42:02.366Z,3.67
2023-11-16T14:44:29.357Z,4.38
2023-11-16T14:46:56.414Z,3.90
2023-11-16T14:49:23.309Z,3.58
2023-11-16T14:51:50.253Z,3.70
2023-11-16T14:54:17.116Z,3.00
2023-11-16T14:56:44.097Z,3.95
2023-11-16T14:59:11.051Z,3.65
2023-11-16T15:01:39.003Z,3.30
2023-11-16T15:04:06.117Z,3.15
2023-11-16T15:06:32.999Z,3.70
2023-11-16T15:09:01.497Z,3.25
2023-11-16T15:11:28.710Z,4.75
2023-11-16T15:14:01.323Z,3.10
2023-11-16T15:16:50.065Z,3.03
2023-11-16T15:19:17.052Z,2.92
2023-11-16T15:21:46.555Z,3.53
2023-11-16T15:24:13.691Z,2.67
2023-11-16T15:26:48.430Z,3.00
2023-11-16T15:29:18.024Z,3.15
2023-11-16T15:31:47.121Z,3.40
2023-11-16T15:34:15.051Z,3.58
2023-11-16T15:36:42.810Z,3.50
2023-11-16T15:39:16.212Z,3.08
2023-11-16T15:41:43.640Z,5.68
2023-11-16T15:44:10.507Z,4.30
2023-11-16T15:46:37.462Z,3.58
2023-11-16T15:49:04.611Z,3.45
2023-11-16T15:51:32.916Z,3.83
2023-11-16T15:54:01.748Z,3.53
2023-11-16T15:56:29.818Z,3.80
2023-11-16T15:58:57.291Z,3.50
2023-11-16T16:01:24.638Z,4.10
2023-11-16T16:03:58.003Z,3.85
2023-11-16T16:06:25.323Z,3.50
2023-11-16T16:08:52.629Z,4.65
2023-11-16T16:11:25.948Z,4.30
2023-11-16T16:13:52.901Z,3.92
2023-11-16T16:16:20.918Z,4.57
2023-11-16T16:18:48.014Z,3.97
2023-11-16T16:21:15.293Z,4.30
2023-11-16T16:23:45.894Z,4.18
2023-11-16T16:26:13.983Z,4.20
2023-11-16T16:28:46.168Z,4.32
2023-11-16T16:31:23.691Z,5.05
2023-11-16T16:33:51.792Z,4.78
2023-11-16T16:36:19.180Z,6.05
2023-11-16T16:38:46.057Z,4.32
2023-11-16T16:41:14.609Z,4.70
2023-11-16T16:43:41.417Z,4.40
2023-11-16T16:46:23.468Z,3.20
2023-11-16T16:48:51.619Z,5.28
2023-11-16T16:51:19.481Z,6.30
2023-11-16T16:53:48.785Z,4.65
2023-11-16T16:56:15.984Z,4.57
2023-11-16T16:58:42.860Z,4.63
2023-11-16T17:01:10.133Z,4.57
2023-11-16T17:03:41.140Z,4.25
2023-11-16T17:06:09.586Z,5.20
2023-11-16T17:08:40.065Z,6.80
2023-11-16T17:11:07.386Z,6.30
2023-11-16T17:13:36.786Z,6.13
2023-11-16T17:16:05.295Z,4.53
2023-11-16T17:18:32.318Z,5.28
2023-11-16T17:20:59.428Z,5.30
2023-11-16T17:23:26.408Z,5.03
2023-11-16T17:25:53.638Z,5.13
2023-11-16T17:28:22.276Z,5.68
2023-11-16T17:30:49.328Z,5.85
2023-11-16T17:33:16.497Z,5.80
2023-11-16T17:35:43.961Z,4.80
2023-11-16T17:38:11.245Z,6.90
2023-11-16T17:40:39.109Z,8.80
2023-11-16T17:43:07.285Z,6.40
2023-11-16T17:45:34.384Z,6.93
2023-11-16T17:48:01.912Z,7.10
2023-11-16T17:50:29.592Z,6.10
2023-11-16T17:52:56.404Z,6.43
2023-11-16T17:55:23.552Z,7.03
2023-11-16T17:57:51.816Z,6.15
2023-11-16T18:00:20.020Z,6.80
2023-11-16T18:02:47.575Z,6.25
2023-11-16T18:05:16.157Z,6.78
2023-11-16T18:07:46.853Z,10.43
2023-11-16T18:10:14.837Z,7.30
2023-11-16T18:12:47.172Z,9.15
2023-11-16T18:15:17.399Z,7.13
2023-11-16T18:17:45.241Z,8.18
2023-11-16T18:20:14.218Z,8.07
2023-11-16T18:22:42.083Z,8.88
2023-11-16T18:25:16.153Z,8.50
2023-11-16T18:27:44.359Z,8.63
2023-11-16T18:30:15.280Z,9.00
2023-11-16T18:32:47.712Z,10.57
2023-11-16T18:35:14.870Z,8.77
2023-11-16T18:37:42.006Z,9.55
2023-11-16T18:40:10.683Z,7.80
2023-11-16T18:42:42.577Z,7.18
2023-11-16T18:45:10.818Z,9.38
2023-11-16T18:47:38.071Z,9.05
2023-11-16T18:50:06.187Z,7.65
2023-11-16T18:52:33.101Z,10.95
2023-11-16T18:55:00.142Z,13.30
2023-11-16T18:57:28.256Z,9.32
2023-11-16T18:59:55.789Z,13.23
2023-11-16T19:02:22.596Z,10.45
2023-11-16T19:04:49.891Z,12.70
2023-11-16T19:07:18.022Z,13.52
2023-11-16T19:09:48.652Z,10.82
2023-11-16T19:12:18.064Z,12.27
2023-11-16T19:14:45.614Z,10.70
2023-11-16T19:17:13.099Z,10.30
2023-11-16T19:19:40.036Z,10.18
2023-11-16T19:22:12.425Z,13.25
2023-11-16T19:24:39.331Z,11.75
2023-11-16T19:27:06.323Z,13.68
2023-11-16T19:29:33.119Z,11.93
2023-11-16T19:32:00.030Z,11.85
2023-11-16T19:34:26.887Z,12.90
2023-11-16T19:36:53.817Z,10.00
2023-11-16T19:39:27.775Z,12.15
2023-11-16T19:41:59.723Z,11.98
2023-11-16T19:44:26.528Z,12.05
2023-11-16T19:46:54.474Z,12.30
2023-11-16T19:49:22.075Z,12.50
2023-11-16T19:51:48.935Z,12.75
2023-11-16T19:54:18.569Z,12.27
2023-11-16T19:56:45.402Z,13.40
2023-11-16T19:59:12.426Z,13.93
2023-11-16T20:01:39.377Z,12.43
2023-11-16T20:04:06.375Z,11.00
2023-11-16T20:06:33.307Z,12.32
2023-11-16T20:09:00.995Z,11.82
2023-11-16T20:11:30.777Z,12.30
2023-11-16T20:13:58.851Z,11.77
2023-11-16T20:16:25.737Z,12.80
2023-11-16T20:18:52.618Z,11.77
2023-11-16T20:21:22.161Z,12.07
2023-11-16T20:23:49.991Z,11.77
2023-11-16T20:26:16.886Z,10.82
2023-11-16T20:28:47.778Z,11.65
2023-11-16T20:31:15.995Z,11.40
2023-11-16T20:33:42.982Z,12.40
2023-11-16T20:36:17.167Z,11.38
2023-11-16T20:38:44.621Z,11.38
2023-11-16T20:41:11.536Z,13.32
2023-11-16T20:43:39.285Z,11.98
2023-11-16T20:46:06.294Z,11.68
2023-11-16T20:48:34.073Z,12.55
2023-11-16T20:51:01.036Z,11.40
2023-11-16T20:53:28.218Z,11.23
2023-11-16T20:55:55.680Z,13.52
2023-11-16T20:58:22.796Z,10.80
2023-11-16T21:00:49.733Z,10.82
2023-11-16T21:03:16.869Z,10.90
2023-11-16T21:05:43.868Z,10.57
2023-11-16T21:08:12.740Z,10.55
2023-11-16T21:10:41.442Z,12.95
2023-11-16T21:13:08.424Z,11.40
2023-11-16T21:15:35.393Z,12.23
2023-11-16T21:18:02.260Z,12.30
2023-11-16T21:20:30.838Z,11.38
2023-11-16T21:23:00.355Z,11.85
2023-11-16T21:25:27.241Z,11.73
2023-11-16T21:27:54.647Z,12.70
2023-11-16T21:30:21.924Z,11.80
2023-11-16T21:32:48.842Z,10.80
2023-11-16T21:35:16.264Z,10.73
2023-11-16T21:37:44.691Z,10.35
2023-11-16T21:40:12.921Z,10.48
2023-11-16T21:42:40.710Z,10.57
2023-11-16T21:45:08.549Z,11.43
2023-11-16T21:47:37.617Z,11.18
2023-11-16T21:50:05.998Z,10.52
2023-11-16T21:52:32.997Z,10.98
2023-11-16T21:54:59.880Z,10.00
2023-11-16T21:57:26.759Z,12.07
2023-11-16T21:59:56.288Z,10.45
2023-11-16T22:02:23.193Z,9.25
2023-11-16T22:04:51.618Z,9.75
2023-11-16T22:07:18.847Z,10.35
2023-11-16T22:09:45.864Z,9.75
2023-11-16T22:12:13.161Z,9.13
2023-11-16T22:14:41.492Z,10.43
2023-11-16T22:17:09.724Z,9.05
2023-11-16T22:19:36.584Z,9.18
2023-11-16T22:22:05.059Z,8.05
2023-11-16T22:24:31.969Z,9.18
2023-11-16T22:26:58.860Z,9.77
2023-11-16T22:29:25.815Z,8.55
2023-11-16T22:31:52.682Z,8.90
2023-11-16T22:34:19.624Z,10.00
2023-11-16T22:36:46.509Z,9.35
2023-11-16T22:39:13.730Z,8.65
2023-11-16T22:41:40.539Z,9.45
2023-11-16T22:44:07.370Z,7.80
2023-11-16T22:46:35.971Z,8.23
2023-11-16T22:49:02.938Z,7.70
2023-11-16T22:51:33.607Z,8.18
2023-11-16T22:54:00.574Z,7.07
2023-11-16T22:56:27.404Z,7.18
2023-11-16T22:58:55.369Z,7.82
2023-11-16T23:01:22.196Z,6.63
2023-11-16T23:03:49.249Z,6.65
2023-11-16T23:06:16.909Z,6.25
2023-11-16T23:08:44.316Z,7.57
2023-11-16T23:11:11.305Z,7.20
2023-11-16T23:13:40.392Z,6.80
2023-11-16T23:16:10.348Z,6.03
2023-11-16T23:18:37.431Z,6.07
2023-11-16T23:21:04.715Z,6.28
2023-11-16T23:23:31.537Z,5.40
2023-11-16T23:26:01.951Z,5.93
2023-11-16T23:28:28.808Z,5.55
2023-11-16T23:30:55.977Z,4.72
2023-11-16T23:33:23.132Z,5.70
2023-11-16T23:35:49.986Z,4.70
2023-11-16T23:38:17.115Z,5.68
2023-11-16T23:40:43.961Z,4.53
2023-11-16T23:43:10.857Z,4.82
2023-11-16T23:45:37.793Z,4.65
2023-11-16T23:48:05.395Z,5.45
2023-11-16T23:50:36.240Z,4.70
2023-11-16T23:53:04.254Z,5.93
2023-11-16T23:55:31.344Z,4.85
2023-11-16T23:57:58.288Z,4.18
